الصفحة الرئيسية
METAR-TAF:

METAR-TAF

مطار :

ريغا, لاتفيا

دائرة عرض: 56-55N, خط طول: 023-58E, ارتفاع: 10 متر

مراقبة الطقس الحالي

تاريخ ووقت الإصدار 17 دقيقة قبل الساعة 00:20UTC
ريح 2 عقدةمن اتجاهات متغيرة
درجة الحرارة 16°درجة مئوية
الرطوبة 100%
ضغط 1015 hPa
الرؤية 10 كم أو أكثر
غيوم قليلة على ارتفاع 1300 قدم
غيوم مفككة على ارتفاع 4400 قدم

METAR: EVRA 160020Z VRB02KT 9999 FEW013 BKN044 16/16 Q1015 NOSIG

زمن: 03:37 (00:37 UTC)

توقعات

تاريخ ووقت الإصدار 1ساعة و 40 دقيقة قبل الساعة 22:57UTC
التوقعات صالحة من16 الساعة 00 UTC إلى 16 الساعة 24 UTC
ريح 5 عقدة من الغرب/الشمال الغربي
الرؤية 10 كم أو أكثر
غيوم مفككة على ارتفاع 3000 قدم
مؤقت
من 16 الساعة 00 UTC إلى 16 الساعة 03 UTC
الرؤية: 0700 متر
غيوم مفككة على ارتفاع 200 قدم
ضباب
أصبح
من 16 الساعة 18 UTC إلى 16 الساعة 20 UTC
ريح 2 عقدةمن اتجاهات متغيرة

TAF: EVRA 152257Z 1600/1624 30005KT 9999 BKN030 TEMPO 1600/1603 0700 FG BKN002 BECMG 1618/1620 VRB02KT

أرصاد الطقس والتوقعات من أكثر من 4000 مطار (تقارير الطقس للمطار METAR والتنبؤ بالطقس بالمطارTAF).

المحطات المتاحة هي النقط الصفراء والحمراء على الخريطة.

حرك المؤشر فوق النقطة لمعرفة اسم المحطة.

ثم انقر لمعرفة أرصاد وتوقعات الطقس.

لتغيير الخارطة: اضغط على الأزرار الخضراء مع رمز الصليب الأسود للتكبير. على الزر الأخضر مع شرطة للتصغير، أو على الأسهم الخضراء للخرائط المجاورة.


METAR-TAF: